Time;durP1;ratioP1;P1;durP2;ratioP2;P2;SDS_P1;SDS_P2;PMS_P1;PMS_P2;Temp;Humidity;BMP_temperature;BMP_pressure;BME280_temperature;BME280_humidity;BME280_pressure;Samples;Min_cycle;Max_cycle;Signal;HPM_P1;HPM_P2
2022/08/30 00:03:33;;;;;;;6.38;1.55;;;15.20;99.90;;;;;;5069348;28;20071;-78
2022/08/30 00:05:58;;;;;;;1.90;1.60;;;15.10;99.90;;;;;;5068833;28;20031;-78
2022/08/30 00:08:30;;;;;;;1.42;1.33;;;15.20;99.90;;;;;;5067247;28;20539;-77
2022/08/30 00:10:56;;;;;;;1.90;1.30;;;15.10;99.90;;;;;;5065142;28;20021;-78
2022/08/30 00:13:28;;;;;;;4.97;1.92;;;15.10;99.90;;;;;;5068144;28;20035;-77
2022/08/30 00:15:54;;;;;;;1.58;1.40;;;15.10;99.90;;;;;;5068416;28;20043;-78
2022/08/30 00:18:28;;;;;;;2.45;1.50;;;15.00;99.90;;;;;;5068434;28;20037;-78
2022/08/30 00:20:54;;;;;;;4.28;1.92;;;15.00;99.90;;;;;;5069605;28;20063;-78
2022/08/30 00:23:29;;;;;;;1.30;1.20;;;15.00;99.90;;;;;;5069007;28;20766;-77
2022/08/30 00:25:58;;;;;;;1.60;1.50;;;15.00;99.90;;;;;;5068000;28;20119;-79
2022/08/30 00:28:29;;;;;;;3.53;2.00;;;15.00;99.90;;;;;;5069092;28;20039;-77
2022/08/30 00:30:54;;;;;;;1.65;1.33;;;14.90;99.90;;;;;;5069867;28;20079;-78
2022/08/30 00:33:29;;;;;;;1.52;1.40;;;14.90;99.90;;;;;;5068494;28;20032;-78
2022/08/30 00:35:55;;;;;;;2.55;1.50;;;14.90;99.90;;;;;;5068406;28;20098;-78
2022/08/30 00:38:23;;;;;;;2.55;1.40;;;14.90;99.90;;;;;;5069285;28;20477;-78
2022/08/30 00:40:49;;;;;;;2.70;1.60;;;14.80;99.90;;;;;;5069522;28;20063;-78
2022/08/30 00:43:29;;;;;;;1.50;1.38;;;14.80;99.90;;;;;;5067424;28;20040;-78
2022/08/30 00:45:56;;;;;;;1.95;1.77;;;14.90;99.90;;;;;;5067042;28;20048;-77
2022/08/30 00:48:40;;;;;;;2.17;1.75;;;14.90;99.90;;;;;;5064591;28;20040;-77
2022/08/30 00:51:09;;;;;;;1.08;1.08;;;15.00;99.90;;;;;;5069081;28;20089;-77
2022/08/30 00:53:37;;;;;;;1.50;1.40;;;14.90;99.90;;;;;;5068520;28;20142;-78
2022/08/30 00:56:04;;;;;;;2.83;1.40;;;15.00;99.90;;;;;;5067061;28;20025;-78
2022/08/30 00:58:36;;;;;;;2.17;1.42;;;15.00;99.90;;;;;;5066015;28;20493;-78
2022/08/30 01:01:03;;;;;;;1.50;1.38;;;15.00;99.90;;;;;;5067281;28;20480;-78
2022/08/30 01:03:30;;;;;;;1.40;1.30;;;15.00;99.90;;;;;;5066051;28;20032;-79
2022/08/30 01:05:57;;;;;;;1.83;1.30;;;14.90;99.90;;;;;;5069035;28;20037;-78
2022/08/30 01:08:29;;;;;;;3.13;1.42;;;14.90;99.90;;;;;;5066495;28;20040;-78
2022/08/30 01:10:56;;;;;;;2.22;1.20;;;14.90;99.90;;;;;;5069805;28;20052;-78
2022/08/30 01:13:23;;;;;;;1.23;1.13;;;14.90;99.90;;;;;;5065781;28;20034;-78
2022/08/30 01:15:50;;;;;;;3.42;1.30;;;14.90;99.90;;;;;;5069650;28;20159;-78
2022/08/30 01:18:17;;;;;;;2.80;1.23;;;14.80;99.90;;;;;;5067602;28;20037;-79
2022/08/30 01:21:06;;;;;;;1.20;1.13;;;14.80;99.90;;;;;;5067396;28;20039;-78
2022/08/30 01:23:35;;;;;;;2.53;1.52;;;14.80;99.90;;;;;;5061904;28;20028;-78
2022/08/30 01:26:03;;;;;;;1.73;1.20;;;14.70;99.90;;;;;;5069908;28;20036;-78
2022/08/30 01:28:39;;;;;;;1.83;1.20;;;14.70;99.90;;;;;;5068052;28;20406;-78
2022/08/30 01:31:05;;;;;;;1.92;1.38;;;14.70;99.90;;;;;;5067592;28;20058;-78
2022/08/30 01:33:30;;;;;;;3.60;1.75;;;14.70;99.90;;;;;;5067029;28;20468;-79
2022/08/30 01:36:02;;;;;;;2.42;1.38;;;14.60;99.90;;;;;;5067680;28;20063;-78
2022/08/30 01:38:57;;;;;;;1.58;1.40;;;14.60;99.90;;;;;;5066301;28;20059;-78
2022/08/30 01:41:29;;;;;;;2.45;1.40;;;14.50;99.90;;;;;;5062161;28;20127;-78
2022/08/30 01:43:57;;;;;;;1.25;1.15;;;14.50;99.90;;;;;;5062171;28;20389;-78
2022/08/30 01:46:37;;;;;;;2.25;1.60;;;14.50;99.90;;;;;;5067237;28;20053;-78
2022/08/30 01:49:06;;;;;;;1.42;1.27;;;14.50;99.90;;;;;;5065488;28;20440;-78
2022/08/30 01:51:32;;;;;;;2.90;1.45;;;14.50;99.90;;;;;;5068119;28;20163;-78
2022/08/30 01:53:58;;;;;;;2.10;1.60;;;14.50;99.90;;;;;;5066095;28;20032;-78
2022/08/30 01:56:33;;;;;;;1.58;1.48;;;14.50;99.90;;;;;;5067844;28;20024;-78
2022/08/30 01:58:58;;;;;;;1.50;1.35;;;14.50;99.90;;;;;;5065031;28;20047;-78
2022/08/30 02:01:35;;;;;;;2.58;1.48;;;14.50;99.90;;;;;;5069361;28;20025;-79
2022/08/30 02:04:01;;;;;;;2.75;1.70;;;14.50;99.90;;;;;;5068416;28;20032;-78
2022/08/30 02:06:30;;;;;;;2.45;1.52;;;14.50;99.90;;;;;;5070168;28;20036;-78
2022/08/30 02:08:56;;;;;;;6.47;1.92;;;14.50;99.90;;;;;;5065767;28;20498;-78
2022/08/30 02:11:30;;;;;;;1.83;1.70;;;14.50;99.90;;;;;;5066914;28;20082;-79
2022/08/30 02:13:56;;;;;;;2.42;1.65;;;14.50;99.90;;;;;;5067166;28;20043;-78
2022/08/30 02:16:31;;;;;;;5.00;1.35;;;14.50;99.90;;;;;;5068445;28;20477;-78
2022/08/30 02:18:57;;;;;;;;;;;14.50;99.90;;;;;;5068337;28;20040;-78
2022/08/30 02:21:32;;;;;;;4.32;1.45;;;14.50;99.90;;;;;;5069079;28;19909;-78
2022/08/30 02:23:57;;;;;;;1.60;1.20;;;14.50;99.90;;;;;;5066123;28;20374;-78
2022/08/30 02:26:35;;;;;;;3.85;1.80;;;14.50;99.90;;;;;;5068550;28;20032;-78
2022/08/30 02:29:04;;;;;;;3.00;1.50;;;14.50;99.90;;;;;;5065809;28;20111;-79
2022/08/30 02:31:29;;;;;;;1.25;1.10;;;14.50;99.90;;;;;;5065346;28;20033;-78
2022/08/30 02:33:55;;;;;;;1.70;1.20;;;14.50;99.90;;;;;;5067986;28;20032;-78
2022/08/30 02:36:27;;;;;;;1.15;1.13;;;14.50;99.90;;;;;;5065231;28;20028;-78
2022/08/30 02:38:53;;;;;;;2.40;1.50;;;14.50;99.90;;;;;;5064789;28;20408;-79
2022/08/30 02:41:19;;;;;;;1.38;1.27;;;14.50;99.90;;;;;;5067176;28;20020;-79
2022/08/30 02:43:45;;;;;;;2.58;1.23;;;14.50;99.90;;;;;;5066375;28;20040;-78
2022/08/30 02:46:10;;;;;;;2.42;1.17;;;14.50;99.90;;;;;;5068275;28;20366;-78
2022/08/30 02:48:39;;;;;;;3.22;1.23;;;14.40;99.90;;;;;;5066293;28;20090;-78
2022/08/30 02:51:07;;;;;;;4.40;1.25;;;14.40;99.90;;;;;;5068222;28;20048;-78
2022/08/30 02:53:40;;;;;;;1.10;1.00;;;14.40;99.90;;;;;;5066818;28;20025;-79
2022/08/30 02:56:06;;;;;;;1.48;1.25;;;14.40;99.90;;;;;;5066357;28;20037;-78
2022/08/30 02:58:32;;;;;;;0.95;0.93;;;14.40;99.90;;;;;;5065486;28;20454;-79
2022/08/30 03:00:58;;;;;;;1.17;1.08;;;14.40;99.90;;;;;;5065929;28;20044;-78
2022/08/30 03:03:26;;;;;;;2.38;1.30;;;14.40;99.90;;;;;;5066287;28;20024;-78
2022/08/30 03:05:52;;;;;;;4.30;1.38;;;14.40;99.90;;;;;;5070014;28;20044;-78
2022/08/30 03:08:27;;;;;;;2.83;1.30;;;14.40;99.90;;;;;;5070158;28;20059;-79
2022/08/30 03:10:52;;;;;;;1.60;1.33;;;14.40;99.90;;;;;;5071984;28;20484;-78
2022/08/30 03:13:18;;;;;;;1.05;0.90;;;14.40;99.90;;;;;;5065909;28;21579;-79
2022/08/30 03:15:44;;;;;;;2.83;1.40;;;14.40;99.90;;;;;;5070130;28;20058;-79
2022/08/30 03:18:09;;;;;;;2.65;1.05;;;14.50;99.90;;;;;;5065804;28;20040;-78
2022/08/30 03:20:35;;;;;;;1.17;1.10;;;14.50;99.90;;;;;;5069672;28;20028;-79
2022/08/30 03:23:01;;;;;;;1.40;1.00;;;14.50;99.90;;;;;;5070612;28;20040;-79
2022/08/30 03:25:29;;;;;;;1.52;1.35;;;14.60;99.90;;;;;;5069506;28;20047;-78
2022/08/30 03:27:55;;;;;;;1.75;1.35;;;14.60;99.90;;;;;;5063609;28;20419;-79
2022/08/30 03:30:21;;;;;;;3.70;1.20;;;14.70;99.90;;;;;;5063368;28;20108;-78
2022/08/30 03:32:46;;;;;;;1.33;1.00;;;14.60;99.90;;;;;;5072680;28;20028;-79
2022/08/30 03:35:13;;;;;;;3.47;1.40;;;14.60;99.90;;;;;;5070871;28;20031;-79
2022/08/30 03:37:40;;;;;;;2.05;1.45;;;14.70;99.90;;;;;;5065969;28;20588;-79
2022/08/30 03:40:08;;;;;;;1.40;1.30;;;14.70;99.90;;;;;;5070337;28;20032;-78
2022/08/30 03:42:34;;;;;;;2.50;1.02;;;14.70;99.90;;;;;;5071803;28;20598;-78
2022/08/30 03:45:03;;;;;;;0.80;0.80;;;14.80;99.90;;;;;;5071987;28;20024;-79
2022/08/30 03:47:28;;;;;;;1.45;1.20;;;14.80;99.90;;;;;;5069305;28;20056;-79
2022/08/30 03:49:54;;;;;;;1.25;1.00;;;14.90;99.90;;;;;;5068566;28;20043;-78
2022/08/30 03:52:20;;;;;;;0.88;0.88;;;14.90;99.90;;;;;;5071745;28;20056;-78
2022/08/30 03:54:46;;;;;;;6.60;1.25;;;14.90;99.90;;;;;;5069961;28;20039;-79
2022/08/30 03:57:11;;;;;;;3.63;1.52;;;15.00;99.90;;;;;;5077582;28;20032;-79
2022/08/30 03:59:37;;;;;;;5.22;1.83;;;15.10;99.90;;;;;;5064666;28;20033;-78
2022/08/30 04:02:04;;;;;;;5.13;1.60;;;15.10;99.90;;;;;;5067391;28;20112;-79
2022/08/30 04:04:59;;;;;;;7.38;1.70;;;15.10;99.90;;;;;;5067126;28;20040;-79
2022/08/30 04:07:36;;;;;;;3.20;1.92;;;15.10;99.90;;;;;;5066466;28;20465;-78
2022/08/30 04:10:03;;;;;;;2.60;1.92;;;15.10;99.90;;;;;;5072404;28;20064;-78
2022/08/30 04:12:35;;;;;;;4.82;2.63;;;15.10;99.90;;;;;;5072219;28;20031;-79
2022/08/30 04:15:01;;;;;;;4.63;2.15;;;15.10;99.90;;;;;;5070793;28;20059;-78
2022/08/30 04:17:36;;;;;;;4.28;2.58;;;15.10;99.90;;;;;;5070634;28;20082;-78
2022/08/30 04:20:02;;;;;;;5.82;2.50;;;15.20;99.90;;;;;;5067690;28;20038;-78
2022/08/30 04:22:37;;;;;;;5.47;2.95;;;15.20;99.90;;;;;;5067998;28;20040;-78
2022/08/30 04:25:04;;;;;;;2.92;2.50;;;15.10;99.90;;;;;;5067660;28;20111;-78
2022/08/30 04:27:39;;;;;;;3.70;3.10;;;15.20;99.90;;;;;;5068913;28;20082;-79
2022/08/30 04:30:05;;;;;;;3.85;2.80;;;15.20;99.90;;;;;;5067668;28;20113;-78
2022/08/30 04:32:34;;;;;;;4.53;3.42;;;15.20;99.90;;;;;;5067492;28;20074;-79
2022/08/30 04:35:00;;;;;;;5.63;3.88;;;15.20;99.90;;;;;;5069676;28;20380;-79
2022/08/30 04:37:40;;;;;;;5.03;4.25;;;15.20;99.90;;;;;;5070239;28;20040;-78
2022/08/30 04:40:06;;;;;;;6.05;5.18;;;15.20;99.90;;;;;;5069132;28;20027;-78
2022/08/30 04:42:37;;;;;;;6.85;4.43;;;15.20;99.90;;;;;;5067979;28;20029;-79
2022/08/30 04:45:07;;;;;;;10.10;5.97;;;15.30;99.90;;;;;;5068892;28;20024;-78
2022/08/30 04:47:35;;;;;;;11.25;6.68;;;15.20;99.90;;;;;;5068401;28;20052;-78
2022/08/30 04:50:01;;;;;;;8.68;6.15;;;15.30;99.90;;;;;;5064373;28;20052;-79
2022/08/30 04:52:30;;;;;;;5.53;4.53;;;15.30;99.90;;;;;;5073271;28;20032;-79
2022/08/30 04:54:59;;;;;;;10.50;5.95;;;15.30;99.90;;;;;;5066450;28;20385;-78
2022/08/30 04:57:39;;;;;;;9.25;7.60;;;15.30;99.90;;;;;;5065952;28;20485;-78
2022/08/30 05:00:07;;;;;;;11.90;6.78;;;15.30;99.90;;;;;;5065910;28;20064;-78
2022/08/30 05:02:33;;;;;;;6.55;3.88;;;15.30;99.90;;;;;;5065709;28;20020;-78
2022/08/30 05:07:42;;;;;;;5.47;3.60;;;15.30;99.90;;;;;;5063153;28;20051;-78
2022/08/30 05:10:08;;;;;;;5.78;4.13;;;15.30;99.90;;;;;;5069566;28;20036;-78
2022/08/30 05:12:34;;;;;;;7.03;3.70;;;15.20;99.90;;;;;;5069151;28;20543;-79
2022/08/30 05:14:59;;;;;;;8.43;3.55;;;15.30;99.90;;;;;;5068821;28;20097;-79
2022/08/30 05:17:28;;;;;;;7.18;4.85;;;15.20;99.90;;;;;;5069033;28;20032;-79
2022/08/30 05:19:53;;;;;;;7.15;4.93;;;15.30;99.90;;;;;;5068413;28;20388;-78
2022/08/30 05:22:19;;;;;;;10.48;5.65;;;15.30;99.90;;;;;;5070410;28;20021;-78
2022/08/30 05:24:45;;;;;;;5.82;4.45;;;15.30;99.90;;;;;;5067738;28;20039;-79
2022/08/30 05:27:10;;;;;;;7.07;5.15;;;15.30;99.90;;;;;;5070803;28;20469;-78
2022/08/30 05:29:42;;;;;;;7.82;4.47;;;15.30;99.90;;;;;;5067292;28;20020;-78
2022/08/30 05:32:08;;;;;;;12.90;5.40;;;15.40;99.90;;;;;;5069908;28;20484;-78
2022/08/30 05:34:45;;;;;;;6.97;4.38;;;15.40;99.90;;;;;;5069327;28;20107;-78
2022/08/30 05:37:11;;;;;;;6.35;4.63;;;15.40;99.90;;;;;;5066000;28;20453;-78
2022/08/30 05:39:36;;;;;;;11.07;6.18;;;15.40;99.90;;;;;;5062754;28;20060;-78
2022/08/30 05:42:02;;;;;;;10.20;7.13;;;15.40;99.90;;;;;;5063525;28;20228;-79
2022/08/30 05:44:34;;;;;;;15.77;9.90;;;15.40;99.90;;;;;;5067167;28;20062;-79
2022/08/30 05:46:59;;;;;;;16.45;8.18;;;15.40;99.90;;;;;;5070699;28;20045;-79
2022/08/30 05:49:32;;;;;;;12.13;6.72;;;15.40;99.90;;;;;;5066823;28;20044;-79
2022/08/30 05:51:57;;;;;;;15.32;5.97;;;15.30;99.90;;;;;;5070945;28;21794;-78
2022/08/30 05:54:23;;;;;;;22.27;12.05;;;15.40;99.90;;;;;;5070878;28;20428;-78
2022/08/30 05:56:55;;;;;;;19.63;11.38;;;15.40;99.90;;;;;;5068113;28;20444;-79
2022/08/30 05:59:21;;;;;;;15.20;9.93;;;15.40;99.90;;;;;;5065767;28;20028;-78
2022/08/30 06:01:46;;;;;;;14.80;10.00;;;15.40;99.90;;;;;;5072135;28;20035;-79
2022/08/30 06:04:13;;;;;;;20.42;12.65;;;15.40;99.90;;;;;;5069158;28;20037;-78
2022/08/30 06:06:41;;;;;;;19.98;12.20;;;15.40;99.90;;;;;;5069451;28;20025;-79
2022/08/30 06:09:08;;;;;;;24.55;12.57;;;15.40;99.90;;;;;;5067710;28;20067;-78
2022/08/30 06:11:41;;;;;;;19.55;12.32;;;15.40;99.90;;;;;;5069295;28;20094;-78
2022/08/30 06:14:07;;;;;;;29.50;17.75;;;15.40;99.90;;;;;;5067425;28;21579;-79
2022/08/30 06:16:44;;;;;;;31.57;17.40;;;15.40;99.90;;;;;;5073076;28;20528;-78
2022/08/30 06:19:13;;;;;;;32.72;16.98;;;15.50;99.90;;;;;;5065025;28;20071;-79
2022/08/30 06:21:46;;;;;;;24.45;14.05;;;15.40;99.90;;;;;;5065733;28;20116;-78
2022/08/30 06:24:11;;;;;;;29.70;15.65;;;15.40;99.90;;;;;;5068248;28;20090;-79
2022/08/30 06:26:43;;;;;;;35.05;17.55;;;15.50;99.90;;;;;;5068848;28;20025;-79
2022/08/30 06:29:13;;;;;;;26.00;14.40;;;15.50;99.90;;;;;;5066030;28;20106;-78
2022/08/30 06:31:41;;;;;;;29.85;14.80;;;15.50;99.90;;;;;;5068241;28;20037;-78
2022/08/30 06:34:07;;;;;;;19.08;11.07;;;15.60;99.90;;;;;;5067648;28;20078;-78
2022/08/30 06:36:37;;;;;;;22.40;11.15;;;15.50;99.90;;;;;;5069150;28;20028;-78
2022/08/30 06:39:03;;;;;;;24.15;11.55;;;15.50;99.90;;;;;;5069487;28;20033;-78
2022/08/30 06:41:31;;;;;;;26.17;14.85;;;15.50;99.90;;;;;;5071731;28;20532;-79
2022/08/30 06:43:59;;;;;;;30.20;15.60;;;15.50;99.90;;;;;;5072620;28;20036;-78
2022/08/30 06:46:31;;;;;;;22.92;12.55;;;15.60;99.90;;;;;;5072424;28;20076;-78
2022/08/30 06:48:58;;;;;;;26.63;13.15;;;15.60;99.90;;;;;;5071596;28;20090;-78
2022/08/30 06:51:26;;;;;;;25.98;12.88;;;15.60;99.90;;;;;;5071391;28;20021;-78
2022/08/30 06:53:52;;;;;;;23.42;13.25;;;15.50;99.90;;;;;;5071022;28;20032;-78
2022/08/30 06:56:19;;;;;;;19.35;12.45;;;15.50;99.90;;;;;;5074266;28;20089;-79
2022/08/30 06:58:45;;;;;;;17.48;10.75;;;15.50;99.90;;;;;;5071923;28;20044;-79
2022/08/30 07:01:13;;;;;;;26.30;14.52;;;15.50;99.90;;;;;;5070085;28;20020;-79
2022/08/30 07:03:39;;;;;;;17.83;10.85;;;15.50;99.90;;;;;;5072195;28;20027;-78
2022/08/30 07:06:06;;;;;;;26.73;13.02;;;15.50;99.90;;;;;;5073414;28;20020;-78
2022/08/30 07:08:31;;;;;;;14.68;10.40;;;15.50;99.90;;;;;;5065947;28;20025;-78
2022/08/30 07:10:57;;;;;;;26.73;16.05;;;15.50;99.90;;;;;;5073311;28;20078;-78
2022/08/30 07:13:23;;;;;;;23.02;13.43;;;15.50;99.90;;;;;;5071106;28;20028;-78
2022/08/30 07:15:55;;;;;;;28.83;15.10;;;15.60;99.90;;;;;;5071099;28;20031;-79
2022/08/30 07:21:08;;;;;;;16.02;9.18;;;15.50;99.90;;;;;;5070207;28;20063;-79
2022/08/30 07:23:50;;;;;;;24.83;11.57;;;15.50;99.90;;;;;;5071044;28;20483;-79
2022/08/30 07:26:19;;;;;;;16.50;10.13;;;15.50;99.90;;;;;;5071942;28;20024;-79
2022/08/30 07:28:46;;;;;;;29.80;12.93;;;15.50;99.90;;;;;;5070497;28;20025;-79
2022/08/30 07:31:14;;;;;;;24.88;12.85;;;15.50;99.90;;;;;;5071932;28;20021;-79
2022/08/30 07:33:46;;;;;;;21.75;12.80;;;15.50;99.90;;;;;;5069578;28;20052;-78
2022/08/30 07:36:14;;;;;;;22.80;12.32;;;15.50;99.90;;;;;;5071165;28;20035;-79
2022/08/30 07:38:39;;;;;;;19.42;11.20;;;15.40;99.90;;;;;;5067596;28;20085;-79
2022/08/30 07:41:06;;;;;;;33.85;15.18;;;15.50;99.90;;;;;;5068775;28;20059;-78
2022/08/30 07:43:35;;;;;;;19.45;13.13;;;15.40;99.90;;;;;;5069101;28;20032;-79
2022/08/30 07:46:06;;;;;;;25.50;15.80;;;15.50;99.90;;;;;;5068850;28;20041;-79
2022/08/30 07:48:44;;;;;;;34.60;21.83;;;15.50;99.90;;;;;;5066070;28;20029;-79
2022/08/30 07:51:22;;;;;;;27.42;17.23;;;15.50;99.90;;;;;;5067997;28;20100;-79
2022/08/30 07:53:48;;;;;;;45.22;25.85;;;15.50;99.90;;;;;;5069980;28;20048;-79
2022/08/30 07:56:13;;;;;;;38.00;23.20;;;15.50;99.90;;;;;;5080640;28;20027;-80
2022/08/30 07:58:46;;;;;;;37.83;22.27;;;15.60;99.90;;;;;;5070820;28;20040;-79
2022/08/30 08:01:12;;;;;;;31.35;19.45;;;15.50;99.90;;;;;;5068970;28;20396;-79
2022/08/30 08:03:49;;;;;;;47.28;26.67;;;15.60;99.90;;;;;;5062968;28;20028;-79
2022/08/30 08:06:16;;;;;;;40.33;24.35;;;15.60;99.90;;;;;;5071158;28;20032;-79
2022/08/30 08:08:52;;;;;;;31.05;19.67;;;15.60;99.90;;;;;;5071032;28;20032;-79
2022/08/30 08:11:22;;;;;;;35.42;21.98;;;15.60;99.90;;;;;;5072173;28;20036;-79
2022/08/30 08:13:54;;;;;;;41.08;25.25;;;15.60;99.90;;;;;;5069830;28;20117;-79
2022/08/30 08:16:22;;;;;;;31.95;20.98;;;15.60;99.90;;;;;;5071781;28;20020;-79
2022/08/30 08:18:47;;;;;;;30.00;20.17;;;15.60;99.90;;;;;;5071068;28;20457;-79
2022/08/30 08:21:13;;;;;;;32.08;18.92;;;15.60;99.90;;;;;;5072016;28;20025;-80
2022/08/30 08:23:41;;;;;;;44.97;24.70;;;15.60;99.90;;;;;;5071152;28;20029;-79
2022/08/30 08:26:06;;;;;;;39.45;23.52;;;15.60;99.90;;;;;;5071605;28;20021;-79
2022/08/30 08:28:42;;;;;;;31.88;18.92;;;15.60;99.90;;;;;;5070728;28;20047;-80
2022/08/30 08:31:44;;;;;;;29.45;18.40;;;15.60;99.90;;;;;;5065978;28;20037;-79
2022/08/30 08:34:10;;;;;;;36.47;20.35;;;15.60;99.90;;;;;;5069415;28;20037;-79
2022/08/30 08:36:49;;;;;;;36.80;22.38;;;15.60;99.90;;;;;;5071366;28;20033;-78
2022/08/30 08:39:14;;;;;;;37.55;23.33;;;15.70;99.90;;;;;;5069979;28;20036;-80
2022/08/30 08:41:54;;;;;;;42.65;22.83;;;15.70;99.90;;;;;;5070483;28;20458;-78
2022/08/30 08:44:55;;;;;;;41.78;24.67;;;15.70;99.90;;;;;;5068872;28;20032;-78
2022/08/30 08:47:45;;;;;;;40.13;26.27;;;15.70;99.90;;;;;;5067781;28;20056;-79
2022/08/30 08:50:16;;;;;;;36.17;22.58;;;15.80;99.90;;;;;;5066098;28;20028;-79
2022/08/30 08:55:55;;;;;;;36.90;23.92;;;15.80;99.90;;;;;;5068121;28;20031;-79
2022/08/30 08:58:24;;;;;;;42.38;24.90;;;15.80;99.90;;;;;;5070868;28;20037;-79
2022/08/30 09:00:51;;;;;;;48.25;29.08;;;15.80;99.90;;;;;;5070077;28;20043;-79
2022/08/30 09:03:20;;;;;;;51.20;26.15;;;15.80;99.90;;;;;;5070447;28;20025;-79
2022/08/30 09:05:49;;;;;;;35.30;21.88;;;15.80;99.90;;;;;;5069591;28;20056;-79
2022/08/30 09:08:16;;;;;;;24.15;16.38;;;15.80;99.90;;;;;;5070795;28;20032;-79
2022/08/30 09:10:55;;;;;;;40.65;23.30;;;15.80;99.90;;;;;;5070137;28;20032;-79
2022/08/30 09:13:23;;;;;;;33.83;20.38;;;15.90;99.90;;;;;;5070589;28;20025;-79
2022/08/30 09:15:50;;;;;;;26.58;17.10;;;15.90;99.90;;;;;;5072408;28;20103;-79
2022/08/30 09:18:17;;;;;;;23.45;14.75;;;15.90;99.90;;;;;;5069442;28;20063;-80
2022/08/30 09:20:48;;;;;;;27.13;16.38;;;15.90;99.90;;;;;;5070187;28;20028;-79
2022/08/30 09:23:31;;;;;;;24.33;16.58;;;15.90;99.90;;;;;;5070448;28;20115;-79
2022/08/30 09:26:04;;;;;;;26.90;17.42;;;16.00;99.90;;;;;;5069213;28;20109;-79
2022/08/30 09:28:48;;;;;;;25.10;16.60;;;16.00;99.90;;;;;;5070123;28;20365;-79
2022/08/30 09:31:19;;;;;;;26.58;17.00;;;16.10;99.90;;;;;;5065748;28;20067;-79
2022/08/30 09:34:04;;;;;;;26.35;17.13;;;16.10;99.90;;;;;;5067207;28;20047;-80
2022/08/30 09:36:51;;;;;;;21.65;14.35;;;16.20;99.90;;;;;;5068931;28;20060;-79
2022/08/30 09:39:30;;;;;;;22.15;14.13;;;16.20;99.90;;;;;;5065190;28;20032;-79
2022/08/30 09:42:17;;;;;;;20.63;15.43;;;16.30;99.90;;;;;;5066353;28;20461;-78
2022/08/30 09:44:49;;;;;;;16.58;11.57;;;16.30;99.90;;;;;;5067513;28;20385;-80
2022/08/30 09:47:30;;;;;;;25.85;15.90;;;16.30;99.90;;;;;;5057680;28;20148;-79
2022/08/30 09:50:18;;;;;;;14.73;10.30;;;16.30;99.90;;;;;;5063209;28;20033;-78
2022/08/30 09:53:11;;;;;;;14.77;11.27;;;16.30;99.90;;;;;;5067022;28;20108;-79
2022/08/30 09:56:01;;;;;;;16.83;13.05;;;16.30;99.90;;;;;;5075021;28;20037;-79
2022/08/30 09:58:47;;;;;;;17.85;10.25;;;16.40;99.90;;;;;;5061522;28;20119;-79
2022/08/30 10:01:20;;;;;;;23.95;16.45;;;16.30;99.90;;;;;;5065316;28;20033;-79
2022/08/30 10:04:08;;;;;;;21.27;13.20;;;16.40;99.90;;;;;;5059500;28;20036;-79
2022/08/30 10:06:48;;;;;;;19.95;13.10;;;16.40;99.90;;;;;;5067015;28;20035;-79
2022/08/30 10:09:21;;;;;;;23.50;15.45;;;16.40;99.90;;;;;;5067340;28;20473;-79
2022/08/30 10:12:24;;;;;;;19.40;14.30;;;16.40;99.90;;;;;;5065826;28;20024;-79
2022/08/30 10:15:17;;;;;;;15.65;12.43;;;16.40;99.90;;;;;;5047334;28;20044;-79
2022/08/30 10:18:18;;;;;;;24.92;14.23;;;16.40;99.90;;;;;;5063313;28;20048;-80
2022/08/30 10:21:15;;;;;;;17.70;12.75;;;16.50;99.90;;;;;;5074118;28;20025;-79
2022/08/30 10:24:01;;;;;;;17.42;12.07;;;16.50;99.90;;;;;;5068208;28;20047;-79
2022/08/30 10:26:49;;;;;;;30.90;17.20;;;16.50;99.90;;;;;;5073263;28;20465;-79
2022/08/30 10:29:39;;;;;;;26.80;16.88;;;16.60;99.90;;;;;;5073282;28;20029;-79
2022/08/30 10:32:21;;;;;;;28.27;16.65;;;16.70;99.90;;;;;;5072978;28;20060;-78
2022/08/30 10:35:02;;;;;;;22.88;14.00;;;16.70;99.90;;;;;;5070500;28;20032;-79
2022/08/30 10:37:30;;;;;;;22.50;13.93;;;16.70;99.90;;;;;;5064801;28;20052;-79
2022/08/30 10:42:55;;;;;;;29.65;17.65;;;16.60;99.90;;;;;;5069654;28;20047;-78
2022/08/30 10:45:21;;;;;;;20.27;13.85;;;16.70;99.90;;;;;;5063471;28;20029;-78
2022/08/30 10:48:05;;;;;;;25.90;15.13;;;16.80;99.90;;;;;;5073503;28;20063;-78
2022/08/30 10:50:39;;;;;;;16.50;11.73;;;16.90;99.90;;;;;;5071383;28;20111;-79
2022/08/30 10:53:28;;;;;;;23.70;14.77;;;16.90;99.90;;;;;;5067348;28;20029;-78
2022/08/30 10:56:01;;;;;;;32.15;15.82;;;17.00;99.90;;;;;;5081842;28;20035;-79
2022/08/30 10:58:36;;;;;;;20.88;15.63;;;17.00;99.90;;;;;;5073244;28;20033;-78
2022/08/30 11:01:39;;;;;;;19.45;14.63;;;17.10;99.90;;;;;;5072982;28;20067;-79
2022/08/30 11:04:23;;;;;;;21.42;14.40;;;17.10;99.90;;;;;;5062778;28;20656;-79
2022/08/30 11:07:16;;;;;;;16.60;14.00;;;17.00;99.90;;;;;;5068906;28;20040;-79
2022/08/30 11:09:48;;;;;;;18.55;13.02;;;17.10;99.90;;;;;;5069704;28;20047;-78
2022/08/30 11:12:36;;;;;;;14.27;10.77;;;17.10;99.90;;;;;;5074751;28;20028;-80
2022/08/30 11:15:18;;;;;;;16.80;10.93;;;17.10;99.90;;;;;;5072484;28;20174;-79
2022/08/30 11:17:53;;;;;;;13.90;11.07;;;17.10;99.90;;;;;;5065737;28;20480;-79
2022/08/30 11:20:27;;;;;;;15.30;11.32;;;17.10;99.90;;;;;;5067911;28;20043;-79
2022/08/30 11:23:18;;;;;;;19.80;13.05;;;17.10;99.90;;;;;;5072359;28;20036;-78
2022/08/30 11:26:02;;;;;;;16.17;10.48;;;17.20;99.90;;;;;;5056122;28;20032;-79
2022/08/30 11:28:33;;;;;;;13.20;8.75;;;17.20;99.90;;;;;;5071182;28;20033;-79
2022/08/30 11:31:30;;;;;;;14.85;12.02;;;17.20;99.90;;;;;;5072368;28;20024;-80
2022/08/30 11:33:58;;;;;;;;;;;17.20;99.90;;;;;;5073034;28;20060;-79
2022/08/30 11:36:41;;;;;;;12.45;10.35;;;17.30;99.90;;;;;;5070321;28;20400;-79
2022/08/30 11:39:31;;;;;;;13.40;10.25;;;17.30;99.90;;;;;;5075668;28;20527;-79
2022/08/30 11:42:29;;;;;;;13.85;10.98;;;17.30;99.90;;;;;;5072517;28;20082;-79
2022/08/30 11:45:23;;;;;;;14.13;11.27;;;17.40;99.90;;;;;;5065011;28;20074;-79
2022/08/30 11:48:01;;;;;;;9.82;8.80;;;17.40;99.90;;;;;;5069175;28;20094;-79
2022/08/30 11:50:59;;;;;;;13.10;10.98;;;17.40;99.90;;;;;;5064302;28;20123;-78
2022/08/30 11:53:44;;;;;;;13.77;11.00;;;17.50;99.90;;;;;;5072394;28;20101;-78
2022/08/30 11:56:20;;;;;;;17.75;11.30;;;17.50;99.90;;;;;;5075011;28;20025;-78
2022/08/30 11:58:59;;;;;;;16.85;9.10;;;17.70;99.90;;;;;;5071302;28;20036;-80
2022/08/30 12:01:25;;;;;;;10.90;8.43;;;17.80;99.90;;;;;;5071672;28;20032;-78
2022/08/30 12:04:24;;;;;;;18.98;11.55;;;17.80;99.90;;;;;;5072083;28;20024;-79
2022/08/30 12:06:52;;;;;;;13.57;9.57;;;17.90;99.90;;;;;;5066178;28;20082;-79
2022/08/30 12:09:23;;;;;;;15.40;9.05;;;18.00;99.90;;;;;;5071439;28;20099;-80
2022/08/30 12:11:54;;;;;;;12.55;9.52;;;18.00;99.90;;;;;;5068567;28;20028;-79
2022/08/30 12:14:51;;;;;;;13.82;9.13;;;18.00;99.90;;;;;;5071279;28;20099;-79
2022/08/30 12:20:24;;;;;;;16.65;8.10;;;18.10;99.90;;;;;;5063198;28;20415;-80
2022/08/30 12:22:52;;;;;;;11.02;7.10;;;18.20;99.90;;;;;;5071600;28;20455;-79
2022/08/30 12:25:26;;;;;;;9.75;6.72;;;18.20;99.90;;;;;;5070909;28;20177;-79
2022/08/30 12:28:14;;;;;;;5.50;4.93;;;18.30;99.90;;;;;;5066552;28;20044;-79
2022/08/30 12:30:49;;;;;;;9.32;6.53;;;18.30;99.90;;;;;;5069668;28;20358;-79
2022/08/30 12:33:24;;;;;;;9.30;5.45;;;18.40;99.90;;;;;;5071567;28;20032;-80
2022/08/30 12:35:50;;;;;;;;;;;18.50;99.90;;;;;;5070950;28;20045;-79
2022/08/30 12:38:20;;;;;;;4.30;3.50;;;18.50;99.90;;;;;;5071239;28;19919;-80
2022/08/30 12:40:56;;;;;;;6.00;4.85;;;18.70;99.90;;;;;;5070408;28;20040;-80
2022/08/30 12:43:35;;;;;;;14.07;6.65;;;18.70;99.90;;;;;;5069976;28;20029;-79
2022/08/30 12:46:05;;;;;;;9.88;5.65;;;18.80;99.90;;;;;;5068835;28;20031;-81
2022/08/30 12:48:40;;;;;;;11.82;5.00;;;18.90;99.90;;;;;;5063964;28;20078;-80
2022/08/30 12:51:09;;;;;;;5.22;3.72;;;18.90;99.90;;;;;;5073999;28;20070;-79
2022/08/30 12:53:41;;;;;;;7.78;3.90;;;19.00;99.90;;;;;;5072937;28;20033;-79
2022/08/30 12:56:13;;;;;;;3.63;3.33;;;19.00;99.90;;;;;;5072077;28;20123;-79
2022/08/30 12:58:51;;;;;;;9.95;4.72;;;19.10;99.90;;;;;;5067803;28;20482;-79
2022/08/30 13:01:27;;;;;;;6.10;4.45;;;19.20;99.90;;;;;;5056039;28;20040;-80
2022/08/30 13:04:14;;;;;;;15.32;5.47;;;19.30;99.90;;;;;;5057711;28;20487;-79
2022/08/30 13:06:48;;;;;;;4.97;3.30;;;19.50;99.90;;;;;;5068221;28;20476;-79
2022/08/30 13:09:39;;;;;;;11.18;3.78;;;19.60;99.90;;;;;;5067798;28;20519;-79
2022/08/30 13:12:26;;;;;;;4.72;3.17;;;19.70;99.90;;;;;;5063031;28;20098;-79
2022/08/30 13:14:52;;;;;;;5.85;4.20;;;19.80;99.90;;;;;;5068342;28;20802;-79
2022/08/30 13:17:17;;;;;;;5.45;3.13;;;19.80;99.90;;;;;;5073407;28;20062;-79
2022/08/30 13:19:53;;;;;;;7.10;4.00;;;19.80;99.90;;;;;;5069710;28;20052;-80
2022/08/30 13:22:30;;;;;;;4.53;2.85;;;19.80;99.90;;;;;;5070512;28;20032;-79